createdAt,value
2018-03-25T00:00:18.271Z,83.48
2018-03-25T00:01:18.365Z,83.20
2018-03-25T00:02:18.453Z,83.39
2018-03-25T00:03:18.538Z,83.39
2018-03-25T00:04:18.628Z,83.67
2018-03-25T00:05:18.714Z,83.10
2018-03-25T00:06:18.801Z,82.72
2018-03-25T00:07:18.890Z,83.76
2018-03-25T00:08:18.975Z,82.63
2018-03-25T00:09:19.061Z,82.25
2018-03-25T00:10:19.149Z,83.01
2018-03-25T00:11:19.235Z,83.29
2018-03-25T00:12:19.328Z,83.76
2018-03-25T00:13:19.416Z,83.63
2018-03-25T00:14:19.522Z,83.44
2018-03-25T00:15:19.616Z,83.82
2018-03-25T00:16:19.698Z,84.39
2018-03-25T00:17:19.787Z,84.67
2018-03-25T00:18:19.874Z,85.14
2018-03-25T00:19:19.951Z,85.14
2018-03-25T00:20:20.054Z,85.52
2018-03-25T00:21:20.152Z,85.42
2018-03-25T00:22:20.232Z,85.52
2018-03-25T00:23:20.321Z,84.86
2018-03-25T00:24:20.412Z,84.77
2018-03-25T00:25:20.497Z,84.48
2018-03-25T00:26:20.589Z,84.29
2018-03-25T00:27:20.670Z,84.14
2018-03-25T00:28:20.754Z,84.01
2018-03-25T00:29:20.838Z,83.34
2018-03-25T00:30:20.927Z,83.72
2018-03-25T00:31:21.020Z,83.44
2018-03-25T00:32:21.101Z,83.25
2018-03-25T00:33:21.180Z,83.58
2018-03-25T00:34:21.273Z,83.06
2018-03-25T00:35:21.366Z,83.44
2018-03-25T00:36:21.458Z,83.06
2018-03-25T00:37:21.543Z,83.48
2018-03-25T00:38:21.638Z,83.34
2018-03-25T00:39:21.730Z,83.72
2018-03-25T00:40:21.816Z,84.01
2018-03-25T00:41:21.918Z,84.20
2018-03-25T00:42:22.068Z,84.77
2018-03-25T00:43:22.091Z,84.86
2018-03-25T00:44:22.180Z,85.05
2018-03-25T00:45:22.265Z,84.86
2018-03-25T00:46:22.355Z,85.14
2018-03-25T00:47:22.444Z,84.77
2018-03-25T00:48:22.533Z,84.39
2018-03-25T00:49:22.618Z,84.10
2018-03-25T00:50:22.704Z,84.58
2018-03-25T00:51:22.794Z,85.42
2018-03-25T00:52:22.889Z,85.14
2018-03-25T00:53:22.977Z,85.33
2018-03-25T00:54:23.067Z,85.42
2018-03-25T00:55:23.183Z,84.86
2018-03-25T00:56:23.264Z,84.86
2018-03-25T00:57:23.327Z,84.48
2018-03-25T00:58:23.409Z,84.48
2018-03-25T00:59:23.504Z,83.63
2018-03-25T01:00:23.587Z,84.01
2018-03-25T01:01:23.678Z,84.10
2018-03-25T01:02:23.762Z,83.63
2018-03-25T01:03:23.857Z,83.91
2018-03-25T01:04:23.947Z,83.44
2018-03-25T01:05:24.034Z,83.06
2018-03-25T01:06:24.125Z,83.34
2018-03-25T01:07:24.215Z,83.63
2018-03-25T01:08:24.303Z,83.44
2018-03-25T01:09:24.390Z,83.82
2018-03-25T01:10:24.475Z,82.97
2018-03-25T01:11:24.561Z,82.68
2018-03-25T01:12:24.650Z,82.50
2018-03-25T01:13:24.738Z,82.59
2018-03-25T01:14:24.881Z,82.59
2018-03-25T01:15:24.916Z,82.68
2018-03-25T01:16:25.004Z,82.68
2018-03-25T01:17:25.092Z,82.59
2018-03-25T01:18:25.179Z,82.31
2018-03-25T01:19:25.278Z,82.68
2018-03-25T01:20:25.357Z,82.87
2018-03-25T01:21:25.445Z,83.63
2018-03-25T01:22:25.533Z,82.59
2018-03-25T01:23:25.621Z,82.68
2018-03-25T01:24:25.708Z,82.50
2018-03-25T01:25:25.795Z,82.50
2018-03-25T01:26:25.884Z,82.40
2018-03-25T01:27:25.975Z,82.68
2018-03-25T01:28:26.063Z,82.50
2018-03-25T01:29:26.150Z,82.59
2018-03-25T01:30:26.240Z,82.68
2018-03-25T01:31:26.332Z,82.78
2018-03-25T01:32:26.418Z,82.68
2018-03-25T01:33:26.503Z,82.50
2018-03-25T01:34:26.594Z,82.50
2018-03-25T01:35:26.681Z,82.50
2018-03-25T01:36:26.767Z,82.50
2018-03-25T01:37:26.853Z,82.59
2018-03-25T01:38:26.944Z,82.59
2018-03-25T01:39:27.035Z,82.87
2018-03-25T01:40:27.121Z,83.06
2018-03-25T01:41:27.208Z,82.78
2018-03-25T01:42:27.296Z,82.78
2018-03-25T01:43:27.394Z,82.59
2018-03-25T01:44:27.478Z,82.50
2018-03-25T01:45:27.570Z,82.31
2018-03-25T01:46:27.661Z,82.87
2018-03-25T01:47:27.746Z,82.31
2018-03-25T01:48:28.378Z,82.50
2018-03-25T01:49:27.917Z,82.40
2018-03-25T01:50:28.003Z,82.78
2018-03-25T01:51:28.089Z,83.63
2018-03-25T01:52:28.183Z,83.15
2018-03-25T01:53:28.318Z,83.25
2018-03-25T01:54:28.360Z,83.25
2018-03-25T01:55:28.437Z,83.44
2018-03-25T01:56:28.524Z,83.53
2018-03-25T01:57:28.612Z,83.44
2018-03-25T01:58:28.709Z,83.72
2018-03-25T01:59:28.791Z,83.91
2018-03-25T02:00:28.882Z,84.10
2018-03-25T02:01:28.972Z,84.01
2018-03-25T02:02:29.065Z,83.91
2018-03-25T02:03:29.158Z,84.01
2018-03-25T02:04:29.244Z,83.82
2018-03-25T02:05:29.331Z,83.82
2018-03-25T02:06:29.420Z,83.72
2018-03-25T02:07:29.511Z,83.53
2018-03-25T02:08:29.598Z,83.91
2018-03-25T02:09:29.686Z,83.91
2018-03-25T02:10:29.773Z,83.82
2018-03-25T02:11:29.860Z,83.63
2018-03-25T02:12:29.945Z,83.53
2018-03-25T02:13:30.032Z,83.34
2018-03-25T02:14:30.129Z,84.01
2018-03-25T02:15:30.216Z,84.01
2018-03-25T02:16:30.310Z,84.20
2018-03-25T02:17:30.393Z,83.44
2018-03-25T02:18:30.483Z,83.44
2018-03-25T02:19:30.571Z,83.72
2018-03-25T02:20:30.661Z,83.91
2018-03-25T02:21:30.750Z,84.01
2018-03-25T02:22:30.838Z,83.91
2018-03-25T02:23:30.928Z,84.01
2018-03-25T02:24:31.014Z,84.01
2018-03-25T02:25:31.101Z,84.01
2018-03-25T02:26:31.185Z,83.91
2018-03-25T02:27:31.276Z,84.10
2018-03-25T02:28:31.403Z,83.63
2018-03-25T02:29:31.492Z,83.44
2018-03-25T02:30:31.582Z,83.34
2018-03-25T02:31:31.667Z,83.15
2018-03-25T02:32:31.754Z,83.91
2018-03-25T02:33:31.882Z,83.59
2018-03-25T02:34:31.938Z,84.16
2018-03-25T02:35:32.028Z,84.53
2018-03-25T02:36:32.124Z,84.34
2018-03-25T02:37:32.220Z,84.34
2018-03-25T02:38:32.303Z,84.34
2018-03-25T02:39:32.395Z,84.48
2018-03-25T02:40:32.484Z,83.97
2018-03-25T02:41:32.571Z,83.97
2018-03-25T02:42:32.658Z,83.59
2018-03-25T02:43:32.747Z,83.49
2018-03-25T02:44:32.838Z,83.97
2018-03-25T02:45:32.926Z,83.97
2018-03-25T02:46:33.031Z,83.59
2018-03-25T02:47:33.096Z,84.63
2018-03-25T02:48:33.183Z,84.06
2018-03-25T02:49:33.267Z,83.68
2018-03-25T02:50:33.356Z,84.01
2018-03-25T02:51:33.448Z,84.16
2018-03-25T02:52:33.536Z,83.78
2018-03-25T02:53:33.615Z,83.97
2018-03-25T02:54:33.704Z,84.06
2018-03-25T02:55:33.792Z,83.78
2018-03-25T02:56:33.877Z,83.59
2018-03-25T02:57:33.963Z,83.78
2018-03-25T02:58:34.053Z,83.59
2018-03-25T02:59:34.139Z,84.16
2018-03-25T03:00:34.227Z,84.16
2018-03-25T03:01:34.322Z,84.44
2018-03-25T03:02:34.409Z,84.44
2018-03-25T03:03:34.487Z,84.63
2018-03-25T03:04:34.647Z,84.44
2018-03-25T03:05:34.662Z,83.68
2018-03-25T03:06:34.752Z,83.97
2018-03-25T03:07:34.842Z,83.68
2018-03-25T03:08:34.933Z,83.68
2018-03-25T03:09:35.026Z,83.87
2018-03-25T03:10:35.126Z,83.97
2018-03-25T03:11:35.215Z,84.06
2018-03-25T03:12:35.303Z,83.87
2018-03-25T03:13:35.389Z,83.40
2018-03-25T03:14:35.478Z,83.49
2018-03-25T03:15:35.563Z,83.30
2018-03-25T03:16:35.651Z,83.49
2018-03-25T03:17:35.737Z,83.40
2018-03-25T03:18:35.824Z,83.40
2018-03-25T03:19:35.911Z,83.11
2018-03-25T03:20:35.996Z,83.30
2018-03-25T03:21:36.084Z,83.30
2018-03-25T03:22:36.173Z,83.40
2018-03-25T03:23:36.256Z,83.30
2018-03-25T03:24:36.346Z,83.30
2018-03-25T03:25:36.431Z,83.40
2018-03-25T03:26:36.521Z,83.40
2018-03-25T03:27:36.609Z,83.30
2018-03-25T03:28:36.701Z,83.40
2018-03-25T03:29:36.787Z,83.06
2018-03-25T03:30:36.882Z,82.73
2018-03-25T03:31:36.963Z,82.54
2018-03-25T03:32:37.048Z,82.26
2018-03-25T03:33:37.137Z,82.73
2018-03-25T03:34:37.223Z,82.54
2018-03-25T03:35:37.302Z,82.64
2018-03-25T03:36:37.391Z,82.64
2018-03-25T03:37:37.480Z,83.49
2018-03-25T03:38:37.565Z,83.30
2018-03-25T03:39:37.652Z,83.21
2018-03-25T03:40:37.737Z,83.40
2018-03-25T03:41:37.818Z,83.40
2018-03-25T03:42:37.912Z,83.40
2018-03-25T03:43:37.998Z,83.30
2018-03-25T03:44:38.088Z,83.21
2018-03-25T03:45:38.178Z,83.30
2018-03-25T03:46:38.263Z,83.11
2018-03-25T03:47:38.350Z,83.21
2018-03-25T03:48:38.439Z,83.68
2018-03-25T03:49:38.535Z,83.49
2018-03-25T03:50:38.619Z,83.68
2018-03-25T03:51:38.706Z,83.87
2018-03-25T03:52:38.791Z,83.40
2018-03-25T03:53:38.888Z,83.11
2018-03-25T03:54:38.975Z,83.30
2018-03-25T03:55:39.063Z,83.21
2018-03-25T03:56:39.158Z,83.11
2018-03-25T03:57:39.240Z,83.30
2018-03-25T03:58:39.330Z,83.21
2018-03-25T03:59:39.416Z,83.11
2018-03-25T04:00:39.497Z,83.30
2018-03-25T04:01:39.584Z,83.40
2018-03-25T04:02:39.670Z,83.21
2018-03-25T04:03:39.758Z,83.68
2018-03-25T04:04:39.844Z,83.68
2018-03-25T04:05:39.935Z,83.49
2018-03-25T04:06:40.020Z,83.59
2018-03-25T04:07:40.107Z,83.40
2018-03-25T04:08:40.192Z,83.30
2018-03-25T04:09:40.282Z,83.21
2018-03-25T04:10:40.367Z,83.21
2018-03-25T04:11:40.462Z,83.30
2018-03-25T04:12:40.538Z,83.30
2018-03-25T04:13:40.624Z,83.30
2018-03-25T04:14:40.710Z,83.49
2018-03-25T04:15:40.800Z,82.73
2018-03-25T04:16:40.891Z,82.26
2018-03-25T04:17:40.980Z,82.73
2018-03-25T04:18:41.064Z,83.49
2018-03-25T04:19:41.155Z,83.21
2018-03-25T04:20:41.240Z,83.21
2018-03-25T04:21:41.331Z,83.21
2018-03-25T04:22:41.419Z,83.30
2018-03-25T04:23:41.505Z,83.21
2018-03-25T04:24:41.591Z,83.40
2018-03-25T04:25:41.685Z,83.40
2018-03-25T04:26:41.771Z,83.30
2018-03-25T04:27:41.860Z,83.21
2018-03-25T04:28:41.946Z,83.30
2018-03-25T04:29:42.034Z,83.49
2018-03-25T04:30:42.132Z,83.30
2018-03-25T04:31:42.221Z,83.11
2018-03-25T04:32:42.299Z,83.21
2018-03-25T04:33:42.382Z,82.92
2018-03-25T04:34:42.475Z,83.40
2018-03-25T04:35:42.565Z,83.40
2018-03-25T04:36:42.661Z,83.21
2018-03-25T04:37:42.751Z,83.21
2018-03-25T04:38:42.839Z,83.68
2018-03-25T04:39:42.928Z,83.78
2018-03-25T04:40:43.015Z,83.68
2018-03-25T04:41:43.104Z,83.40
2018-03-25T04:42:43.187Z,83.78
2018-03-25T04:43:43.277Z,83.59
2018-03-25T04:44:43.361Z,83.87
2018-03-25T04:45:43.449Z,84.16
2018-03-25T04:46:43.535Z,83.87
2018-03-25T04:47:43.629Z,83.30
2018-03-25T04:48:43.710Z,83.78
2018-03-25T04:49:43.800Z,83.68
2018-03-25T04:50:43.883Z,83.59
2018-03-25T04:51:43.980Z,84.16
2018-03-25T04:52:44.059Z,84.16
2018-03-25T04:53:44.148Z,83.49
2018-03-25T04:54:44.232Z,83.40
2018-03-25T04:55:44.314Z,83.49
2018-03-25T04:56:44.398Z,83.49
2018-03-25T04:57:44.485Z,83.40
2018-03-25T04:58:44.572Z,83.40
2018-03-25T04:59:44.660Z,83.21
2018-03-25T05:00:44.750Z,83.21
2018-03-25T05:01:44.831Z,83.49
2018-03-25T05:02:44.915Z,83.21
2018-03-25T05:03:45.002Z,83.30
2018-03-25T05:04:45.087Z,83.21
2018-03-25T05:05:45.178Z,83.11
2018-03-25T05:06:45.266Z,83.02
2018-03-25T05:07:45.343Z,83.11
2018-03-25T05:08:45.436Z,83.59
2018-03-25T05:09:45.563Z,83.49
2018-03-25T05:10:45.613Z,83.97
2018-03-25T05:11:45.702Z,84.16
2018-03-25T05:12:45.789Z,83.87
2018-03-25T05:13:45.905Z,84.06
2018-03-25T05:14:45.966Z,84.16
2018-03-25T05:15:46.052Z,83.78
2018-03-25T05:16:46.138Z,83.40
2018-03-25T05:17:46.228Z,84.06
2018-03-25T05:18:46.310Z,83.97
2018-03-25T05:19:46.395Z,84.06
2018-03-25T05:20:46.489Z,83.87
2018-03-25T05:21:46.575Z,84.16
2018-03-25T05:22:46.662Z,83.78
2018-03-25T05:23:46.750Z,83.59
2018-03-25T05:24:46.841Z,83.59
2018-03-25T05:25:46.931Z,83.68
2018-03-25T05:26:47.015Z,83.40
2018-03-25T05:27:47.108Z,83.49
2018-03-25T05:28:47.195Z,83.78
2018-03-25T05:29:47.283Z,83.21
2018-03-25T05:30:47.365Z,83.59
2018-03-25T05:31:47.452Z,83.78
2018-03-25T05:32:47.542Z,83.49
2018-03-25T05:33:47.629Z,83.40
2018-03-25T05:34:47.714Z,83.30
2018-03-25T05:35:47.804Z,83.40
2018-03-25T05:36:47.889Z,83.40
2018-03-25T05:37:47.977Z,83.21
2018-03-25T05:38:48.063Z,83.21
2018-03-25T05:39:48.156Z,83.02
2018-03-25T05:40:48.244Z,82.73
2018-03-25T05:41:48.328Z,82.54
2018-03-25T05:42:48.421Z,82.54
2018-03-25T05:43:48.502Z,82.35
2018-03-25T05:44:48.591Z,82.64
2018-03-25T05:45:48.677Z,82.54
2018-03-25T05:46:48.768Z,83.02
2018-03-25T05:47:48.855Z,82.73
2018-03-25T05:48:48.948Z,82.64
2018-03-25T05:49:49.046Z,82.17
2018-03-25T05:50:49.133Z,82.35
2018-03-25T05:51:49.218Z,82.07
2018-03-25T05:52:49.305Z,82.17
2018-03-25T05:53:49.396Z,81.88
2018-03-25T05:54:49.478Z,81.88
2018-03-25T05:55:49.574Z,82.17
2018-03-25T05:56:49.656Z,81.70
2018-03-25T05:57:49.748Z,81.41
2018-03-25T05:58:49.835Z,81.41
2018-03-25T05:59:49.923Z,81.41
2018-03-25T06:00:50.013Z,81.41
2018-03-25T06:01:50.100Z,81.22
2018-03-25T06:02:50.198Z,81.26
2018-03-25T06:03:50.291Z,81.64
2018-03-25T06:04:50.384Z,81.26
2018-03-25T06:05:50.472Z,80.79
2018-03-25T06:06:50.561Z,81.17
2018-03-25T06:07:50.651Z,81.17
2018-03-25T06:08:50.739Z,80.88
2018-03-25T06:09:50.820Z,80.88
2018-03-25T06:10:50.907Z,80.51
2018-03-25T06:11:51.016Z,80.41
2018-03-25T06:12:51.102Z,80.22
2018-03-25T06:13:51.188Z,80.41
2018-03-25T06:14:51.277Z,81.07
2018-03-25T06:15:51.379Z,80.51
2018-03-25T06:16:51.444Z,80.98
2018-03-25T06:17:51.531Z,80.60
2018-03-25T06:18:51.630Z,80.41
2018-03-25T06:19:51.706Z,80.60
2018-03-25T06:20:51.807Z,80.69
2018-03-25T06:21:51.879Z,80.41
2018-03-25T06:22:51.975Z,80.69
2018-03-25T06:23:52.051Z,80.13
2018-03-25T06:24:52.136Z,80.13
2018-03-25T06:25:52.227Z,80.13
2018-03-25T06:26:52.316Z,79.47
2018-03-25T06:27:52.416Z,79.56
2018-03-25T06:28:52.506Z,79.75
2018-03-25T06:29:52.593Z,79.60
2018-03-25T06:30:52.680Z,79.47
2018-03-25T06:31:52.770Z,78.99
2018-03-25T06:32:52.867Z,79.13
2018-03-25T06:33:52.950Z,78.94
2018-03-25T06:34:53.034Z,78.65
2018-03-25T06:35:53.136Z,78.46
2018-03-25T06:36:53.195Z,77.61
2018-03-25T06:37:53.285Z,77.80
2018-03-25T06:38:53.371Z,77.08
2018-03-25T06:39:53.472Z,76.99
2018-03-25T06:40:53.547Z,76.61
2018-03-25T06:41:53.639Z,76.14
2018-03-25T06:42:53.730Z,75.66
2018-03-25T06:43:53.817Z,76.04
2018-03-25T06:44:53.901Z,75.09
2018-03-25T06:45:53.993Z,75.09
2018-03-25T06:46:54.078Z,74.66
2018-03-25T06:47:54.169Z,74.28
2018-03-25T06:48:54.255Z,74.18
2018-03-25T06:49:54.344Z,73.61
2018-03-25T06:50:54.429Z,73.24
2018-03-25T06:51:54.524Z,72.57
2018-03-25T06:52:54.614Z,72.52
2018-03-25T06:53:54.709Z,72.10
2018-03-25T06:54:54.803Z,71.66
2018-03-25T06:55:54.892Z,71.57
2018-03-25T06:56:54.979Z,71.66
2018-03-25T06:57:55.072Z,71.47
2018-03-25T06:58:55.170Z,70.81
2018-03-25T06:59:55.257Z,70.62
2018-03-25T07:00:55.349Z,70.43
2018-03-25T07:01:55.488Z,70.56
2018-03-25T07:02:55.540Z,70.09
2018-03-25T07:03:55.626Z,69.90
2018-03-25T07:04:55.712Z,70.28
2018-03-25T07:05:55.800Z,70.37
2018-03-25T07:06:55.886Z,69.90
2018-03-25T07:07:55.983Z,69.80
2018-03-25T07:08:56.069Z,69.80
2018-03-25T07:09:56.163Z,69.52
2018-03-25T07:10:56.252Z,69.61
2018-03-25T07:11:56.342Z,69.13
2018-03-25T07:12:56.435Z,68.95
2018-03-25T07:13:56.523Z,69.42
2018-03-25T07:14:56.615Z,69.23
2018-03-25T07:15:56.706Z,69.33
2018-03-25T07:16:56.793Z,69.04
2018-03-25T07:17:56.885Z,69.36
2018-03-25T07:18:57.045Z,68.95
2018-03-25T07:19:57.086Z,69.08
2018-03-25T07:20:57.176Z,69.04
2018-03-25T07:21:57.268Z,68.95
2018-03-25T07:22:57.357Z,69.27
2018-03-25T07:23:57.447Z,69.42
2018-03-25T07:24:57.531Z,69.61
2018-03-25T07:25:57.619Z,70.37
2018-03-25T07:26:57.712Z,69.90
2018-03-25T07:27:57.805Z,70.18
2018-03-25T07:28:57.895Z,70.18
2018-03-25T07:29:57.991Z,70.56
2018-03-25T07:30:58.083Z,71.13
2018-03-25T07:31:58.182Z,70.56
2018-03-25T07:32:58.266Z,70.09
2018-03-25T07:33:58.407Z,70.47
2018-03-25T07:34:58.449Z,69.80
2018-03-25T07:35:58.543Z,69.80
2018-03-25T07:36:58.637Z,69.71
2018-03-25T07:37:58.721Z,69.80
2018-03-25T07:38:58.810Z,69.99
2018-03-25T07:39:58.900Z,69.52
2018-03-25T07:40:58.986Z,69.90
2018-03-25T07:41:59.991Z,69.80
2018-03-25T07:42:59.206Z,69.99
2018-03-25T07:43:59.332Z,70.18
2018-03-25T07:44:59.405Z,70.09
2018-03-25T07:45:59.484Z,69.99
2018-03-25T07:46:59.577Z,69.90
2018-03-25T07:47:59.669Z,70.28
2018-03-25T07:48:59.759Z,70.37
2018-03-25T07:49:59.906Z,70.59
2018-03-25T07:50:59.942Z,70.75
2018-03-25T07:52:00.025Z,70.37
2018-03-25T07:53:00.107Z,70.47
2018-03-25T07:54:00.199Z,70.40
2018-03-25T07:55:00.294Z,70.78
2018-03-25T07:56:00.387Z,70.65
2018-03-25T07:57:00.472Z,71.03
2018-03-25T07:58:00.566Z,71.41
2018-03-25T07:59:00.656Z,71.60
2018-03-25T08:00:00.754Z,70.65
2018-03-25T08:01:00.841Z,70.75
2018-03-25T08:02:00.935Z,71.22
2018-03-25T08:03:01.057Z,71.83
2018-03-25T08:04:01.147Z,71.73
2018-03-25T08:05:01.242Z,72.21
2018-03-25T08:06:01.336Z,72.68
2018-03-25T08:07:01.495Z,71.60
2018-03-25T08:08:01.512Z,71.51
2018-03-25T08:09:01.604Z,71.98
2018-03-25T08:10:01.689Z,72.30
2018-03-25T08:11:01.772Z,71.73
2018-03-25T08:12:01.866Z,71.55
2018-03-25T08:13:01.940Z,71.73
2018-03-25T08:14:02.058Z,71.07
2018-03-25T08:15:02.152Z,70.98
2018-03-25T08:16:02.270Z,70.88
2018-03-25T08:17:02.351Z,71.07
2018-03-25T08:18:02.438Z,70.98
2018-03-25T08:19:02.532Z,70.88
2018-03-25T08:20:02.623Z,70.88
2018-03-25T08:21:02.717Z,70.31
2018-03-25T08:22:02.811Z,70.59
2018-03-25T08:23:02.902Z,70.59
2018-03-25T08:24:02.994Z,70.59
2018-03-25T08:25:03.086Z,70.40
2018-03-25T08:26:03.176Z,70.35
2018-03-25T08:27:03.269Z,70.63
2018-03-25T08:28:03.358Z,70.69
2018-03-25T08:29:03.448Z,70.35
2018-03-25T08:30:03.538Z,70.15
2018-03-25T08:31:03.629Z,70.54
2018-03-25T08:32:03.730Z,70.35
2018-03-25T08:33:03.808Z,70.06
2018-03-25T08:34:03.900Z,69.68
2018-03-25T08:35:03.992Z,69.78
2018-03-25T08:36:04.085Z,69.59
2018-03-25T08:37:04.180Z,69.68
2018-03-25T08:38:04.270Z,69.49
2018-03-25T08:39:04.358Z,69.59
2018-03-25T08:40:04.453Z,69.68
2018-03-25T08:41:04.549Z,68.92
2018-03-25T08:42:04.637Z,68.29
2018-03-25T08:43:04.728Z,67.72
2018-03-25T08:44:04.821Z,67.91
2018-03-25T08:45:04.927Z,67.72
2018-03-25T08:46:05.014Z,66.87
2018-03-25T08:47:05.109Z,66.49
2018-03-25T08:48:05.206Z,66.20
2018-03-25T08:49:05.300Z,66.20
2018-03-25T08:50:05.394Z,65.82
2018-03-25T08:51:05.493Z,66.01
2018-03-25T08:52:05.586Z,66.49
2018-03-25T08:53:05.673Z,66.01
2018-03-25T08:54:05.770Z,65.54
2018-03-25T08:55:05.861Z,66.01
2018-03-25T08:56:05.949Z,65.95
2018-03-25T08:57:06.049Z,66.42
2018-03-25T08:58:06.138Z,66.33
2018-03-25T08:59:06.234Z,66.42
2018-03-25T09:00:06.322Z,65.86
2018-03-25T09:01:06.418Z,64.14
2018-03-25T09:02:06.507Z,64.14
2018-03-25T09:03:06.601Z,63.95
2018-03-25T09:04:06.695Z,64.72
2018-03-25T09:05:06.787Z,65.47
2018-03-25T09:06:06.878Z,65.67
2018-03-25T09:07:06.975Z,64.72
2018-03-25T09:08:07.068Z,65.38
2018-03-25T09:09:07.158Z,64.43
2018-03-25T09:10:07.252Z,65.09
2018-03-25T09:11:07.343Z,65.09
2018-03-25T09:12:07.426Z,64.53
2018-03-25T09:13:07.516Z,64.81
2018-03-25T09:14:07.607Z,64.62
2018-03-25T09:15:07.697Z,63.95
2018-03-25T09:16:07.787Z,63.76
2018-03-25T09:17:07.875Z,63.79
2018-03-25T09:18:07.972Z,63.70
2018-03-25T09:19:08.067Z,62.65
2018-03-25T09:20:08.159Z,62.75
2018-03-25T09:21:08.256Z,62.56
2018-03-25T09:22:08.368Z,62.65
2018-03-25T09:23:08.443Z,62.37
2018-03-25T09:24:08.533Z,61.90
2018-03-25T09:25:08.624Z,61.45
2018-03-25T09:26:08.718Z,61.35
2018-03-25T09:27:08.813Z,60.88
2018-03-25T09:28:08.906Z,60.41
2018-03-25T09:29:08.999Z,61.07
2018-03-25T09:30:09.090Z,60.69
2018-03-25T09:31:09.185Z,60.12
2018-03-25T09:32:09.278Z,59.45
2018-03-25T09:33:09.372Z,59.74
2018-03-25T09:34:09.466Z,59.27
2018-03-25T09:35:09.558Z,59.48
2018-03-25T09:36:09.645Z,58.98
2018-03-25T09:37:09.737Z,58.72
2018-03-25T09:38:09.825Z,58.31
2018-03-25T09:39:09.919Z,58.34
2018-03-25T09:40:10.006Z,58.62
2018-03-25T09:41:10.111Z,58.22
2018-03-25T09:42:10.182Z,58.81
2018-03-25T09:43:10.278Z,59.20
2018-03-25T09:44:10.373Z,58.72
2018-03-25T09:45:10.459Z,58.72
2018-03-25T09:46:10.555Z,59.10
2018-03-25T09:47:10.649Z,58.25
2018-03-25T09:48:10.737Z,57.39
2018-03-25T09:49:10.829Z,57.87
2018-03-25T09:50:10.921Z,56.24
2018-03-25T09:51:11.047Z,55.96
2018-03-25T09:52:11.110Z,56.53
2018-03-25T09:53:11.204Z,55.90
2018-03-25T09:54:11.296Z,56.18
2018-03-25T09:55:11.374Z,55.32
2018-03-25T09:56:11.472Z,54.27
2018-03-25T09:57:11.569Z,53.61
2018-03-25T09:58:11.664Z,53.52
2018-03-25T09:59:11.759Z,53.80
2018-03-25T10:00:11.851Z,53.99
2018-03-25T10:01:11.952Z,53.99
2018-03-25T10:02:12.037Z,53.99
2018-03-25T10:03:12.133Z,53.70
2018-03-25T10:04:12.227Z,53.99
2018-03-25T10:05:12.326Z,54.02
2018-03-25T10:06:12.415Z,53.13
2018-03-25T10:07:12.508Z,52.78
2018-03-25T10:08:12.600Z,52.30
2018-03-25T10:09:12.697Z,51.82
2018-03-25T10:10:12.788Z,51.06
2018-03-25T10:11:12.895Z,50.87
2018-03-25T10:12:12.991Z,50.40
2018-03-25T10:13:13.083Z,49.73
2018-03-25T10:14:13.176Z,49.56
2018-03-25T10:15:13.269Z,48.99
2018-03-25T10:16:13.362Z,49.47
2018-03-25T10:17:13.455Z,49.85
2018-03-25T10:18:13.546Z,50.32
2018-03-25T10:19:13.640Z,50.42
2018-03-25T10:20:13.724Z,50.32
2018-03-25T10:21:13.806Z,49.56
2018-03-25T10:22:13.901Z,50.32
2018-03-25T10:23:13.992Z,50.42
2018-03-25T10:24:14.083Z,50.90
2018-03-25T10:25:14.965Z,50.32
2018-03-25T10:26:14.333Z,50.42
2018-03-25T10:27:14.430Z,48.90
2018-03-25T10:28:14.527Z,47.18
2018-03-25T10:29:14.625Z,47.28
2018-03-25T10:30:14.717Z,46.92
2018-03-25T10:31:14.809Z,46.32
2018-03-25T10:32:14.907Z,45.39
2018-03-25T10:33:15.003Z,45.49
2018-03-25T10:34:15.100Z,44.63
2018-03-25T10:35:15.194Z,44.44
2018-03-25T10:36:15.289Z,44.44
2018-03-25T10:37:15.382Z,44.53
2018-03-25T10:38:15.478Z,44.56
2018-03-25T10:39:15.572Z,44.46
2018-03-25T10:40:15.666Z,43.89
2018-03-25T10:41:15.762Z,43.60
2018-03-25T10:42:15.854Z,43.60
2018-03-25T10:43:15.950Z,43.79
2018-03-25T10:44:16.047Z,43.41
2018-03-25T10:45:16.339Z,43.13
2018-03-25T10:46:16.213Z,44.46
2018-03-25T10:47:16.305Z,44.46
2018-03-25T10:48:16.403Z,43.60
2018-03-25T10:49:16.497Z,43.51
2018-03-25T10:50:16.593Z,43.03
2018-03-25T10:51:16.687Z,43.13
2018-03-25T10:52:16.782Z,42.86
2018-03-25T10:53:16.874Z,42.93
2018-03-25T10:54:16.971Z,42.36
2018-03-25T10:55:17.070Z,42.93
2018-03-25T10:56:17.166Z,43.32
2018-03-25T10:57:17.257Z,43.13
2018-03-25T10:58:17.353Z,43.41
2018-03-25T10:59:17.449Z,43.70
2018-03-25T11:00:17.548Z,42.48
2018-03-25T11:01:17.643Z,42.10
2018-03-25T11:02:17.739Z,42.00
2018-03-25T11:03:17.837Z,42.19
2018-03-25T11:04:17.930Z,42.29
2018-03-25T11:05:18.025Z,40.66
2018-03-25T11:06:18.124Z,40.66
2018-03-25T11:07:18.223Z,40.47
2018-03-25T11:08:18.321Z,40.86
2018-03-25T11:09:18.412Z,42.02
2018-03-25T11:10:18.510Z,41.55
2018-03-25T11:11:18.602Z,40.11
2018-03-25T11:12:18.699Z,40.01
2018-03-25T11:13:18.795Z,40.59
2018-03-25T11:14:18.898Z,40.59
2018-03-25T11:15:18.998Z,40.30
2018-03-25T11:16:19.098Z,40.78
2018-03-25T11:17:19.191Z,40.97
2018-03-25T11:18:19.274Z,41.45
2018-03-25T11:19:19.371Z,40.97
2018-03-25T11:20:19.466Z,40.97
2018-03-25T11:21:19.562Z,41.06
2018-03-25T11:22:19.673Z,40.97
2018-03-25T11:23:19.752Z,41.93
2018-03-25T11:24:19.848Z,42.11
2018-03-25T11:25:19.947Z,41.55
2018-03-25T11:26:20.050Z,41.55
2018-03-25T11:27:20.137Z,41.16
2018-03-25T11:28:20.232Z,40.99
2018-03-25T11:29:20.343Z,40.89
2018-03-25T11:30:20.432Z,41.26
2018-03-25T11:31:20.527Z,41.09
2018-03-25T11:32:20.623Z,40.89
2018-03-25T11:33:20.720Z,40.23
2018-03-25T11:34:20.835Z,39.37
2018-03-25T11:35:20.922Z,40.70
2018-03-25T11:36:21.065Z,40.78
2018-03-25T11:37:21.167Z,40.99
2018-03-25T11:38:21.307Z,39.94
2018-03-25T11:39:21.263Z,39.27
2018-03-25T11:40:21.385Z,38.70
2018-03-25T11:41:21.454Z,39.37
2018-03-25T11:42:21.536Z,40.03
2018-03-25T11:43:21.622Z,40.52
2018-03-25T11:44:21.748Z,39.77
2018-03-25T11:45:21.855Z,39.39
2018-03-25T11:46:21.910Z,41.11
2018-03-25T11:47:21.978Z,40.25
2018-03-25T11:48:22.076Z,39.96
2018-03-25T11:49:22.220Z,39.20
2018-03-25T11:50:22.281Z,38.62
2018-03-25T11:51:22.369Z,38.81
2018-03-25T11:52:22.455Z,38.43
2018-03-25T11:53:22.588Z,37.95
2018-03-25T11:54:22.640Z,38.14
2018-03-25T11:55:22.724Z,38.14
2018-03-25T11:56:22.832Z,38.91
2018-03-25T11:57:22.902Z,38.71
2018-03-25T11:58:23.014Z,38.43
2018-03-25T11:59:23.115Z,39.20
2018-03-25T12:00:23.206Z,39.39
2018-03-25T12:01:23.286Z,39.10
2018-03-25T12:02:23.399Z,39.00
2018-03-25T12:03:23.483Z,39.29
2018-03-25T12:04:23.585Z,39.10
2018-03-25T12:05:23.682Z,39.20
2018-03-25T12:06:23.782Z,39.20
2018-03-25T12:07:23.867Z,38.43
2018-03-25T12:08:23.960Z,38.14
2018-03-25T12:09:24.043Z,37.85
2018-03-25T12:10:24.198Z,38.43
2018-03-25T12:11:24.294Z,38.62
2018-03-25T12:12:24.389Z,38.43
2018-03-25T12:13:24.497Z,37.76
2018-03-25T12:14:24.600Z,38.14
2018-03-25T12:15:24.678Z,37.66
2018-03-25T12:16:24.800Z,38.53
2018-03-25T12:17:24.875Z,37.40
2018-03-25T12:18:24.977Z,37.21
2018-03-25T12:19:25.093Z,37.57
2018-03-25T12:20:25.176Z,37.40
2018-03-25T12:21:25.252Z,38.26
2018-03-25T12:22:25.353Z,38.45
2018-03-25T12:23:25.450Z,38.26
2018-03-25T12:24:25.540Z,37.40
2018-03-25T12:25:25.620Z,37.21
2018-03-25T12:26:25.731Z,37.21
2018-03-25T12:27:25.837Z,37.68
2018-03-25T12:28:25.931Z,37.49
2018-03-25T12:29:26.029Z,37.11
2018-03-25T12:30:26.112Z,37.30
2018-03-25T12:31:26.217Z,37.30
2018-03-25T12:32:26.320Z,37.97
2018-03-25T12:33:26.414Z,38.09
2018-03-25T12:34:26.510Z,37.99
2018-03-25T12:35:26.607Z,37.41
2018-03-25T12:36:26.705Z,36.82
2018-03-25T12:37:26.805Z,37.21
2018-03-25T12:38:26.907Z,36.35
2018-03-25T12:39:27.007Z,36.35
2018-03-25T12:40:27.106Z,37.40
2018-03-25T12:41:27.205Z,37.30
2018-03-25T12:42:27.297Z,36.99
2018-03-25T12:43:27.396Z,37.26
2018-03-25T12:44:27.501Z,37.84
2018-03-25T12:45:27.599Z,38.41
2018-03-25T12:46:27.702Z,38.41
2018-03-25T12:47:27.797Z,38.87
2018-03-25T12:48:27.896Z,38.87
2018-03-25T12:49:28.017Z,38.98
2018-03-25T12:50:28.084Z,38.51
2018-03-25T12:51:28.189Z,38.43
2018-03-25T12:52:28.282Z,38.70
2018-03-25T12:53:28.387Z,39.08